createdAt,value
2018-09-26T00:00:21.685Z,8.15
2018-09-26T00:02:54.583Z,8.17
2018-09-26T00:05:23.015Z,8.20
2018-09-26T00:07:51.199Z,8.19
2018-09-26T00:10:19.365Z,8.18
2018-09-26T00:12:47.533Z,8.14
2018-09-26T00:15:15.729Z,7.91
2018-09-26T00:17:43.939Z,8.05
2018-09-26T00:20:12.214Z,8.03
2018-09-26T00:22:40.425Z,7.95
2018-09-26T00:25:08.832Z,7.98
2018-09-26T00:27:36.933Z,8.07
2018-09-26T00:30:05.240Z,8.09
2018-09-26T00:32:33.430Z,8.05
2018-09-26T00:35:01.634Z,7.97
2018-09-26T00:37:29.853Z,8.12
2018-09-26T00:39:58.181Z,7.97
2018-09-26T00:42:26.451Z,7.92
2018-09-26T00:44:54.635Z,7.94
2018-09-26T00:47:22.882Z,7.92
2018-09-26T00:49:51.150Z,7.87
2018-09-26T00:52:19.430Z,7.82
2018-09-26T00:54:47.728Z,7.70
2018-09-26T00:57:16.333Z,7.63
2018-09-26T00:59:45.380Z,7.64
2018-09-26T01:02:13.616Z,7.59
2018-09-26T01:04:41.740Z,7.57
2018-09-26T01:07:10.056Z,7.64
2018-09-26T01:09:38.212Z,7.72
2018-09-26T01:12:06.445Z,7.62
2018-09-26T01:14:34.738Z,7.56
2018-09-26T01:17:03.083Z,7.58
2018-09-26T01:19:31.206Z,7.70
2018-09-26T01:21:59.461Z,7.65
2018-09-26T01:24:27.607Z,7.51
2018-09-26T01:26:55.961Z,7.59
2018-09-26T01:29:24.140Z,7.55
2018-09-26T01:31:53.045Z,7.54
2018-09-26T01:34:21.147Z,7.44
2018-09-26T01:36:49.461Z,7.45
2018-09-26T01:39:17.694Z,7.37
2018-09-26T01:41:46.015Z,7.31
2018-09-26T01:44:14.182Z,7.37
2018-09-26T01:46:42.277Z,7.36
2018-09-26T01:49:10.463Z,7.43
2018-09-26T01:51:38.743Z,7.48
2018-09-26T01:54:07.145Z,7.41
2018-09-26T01:56:35.522Z,7.44
2018-09-26T01:59:03.937Z,7.43
2018-09-26T02:01:32.319Z,7.40
2018-09-26T02:04:00.473Z,7.47
2018-09-26T02:06:28.871Z,7.43
2018-09-26T02:08:57.073Z,7.43
2018-09-26T02:11:25.285Z,7.42
2018-09-26T02:13:53.493Z,7.30
2018-09-26T02:18:49.415Z,7.33
2018-09-26T02:21:17.747Z,7.28
2018-09-26T02:23:45.988Z,7.27
2018-09-26T02:26:14.320Z,7.30
2018-09-26T02:28:42.415Z,7.29
2018-09-26T02:31:10.643Z,7.33
2018-09-26T02:33:39.042Z,7.30
2018-09-26T02:36:14.700Z,7.24
2018-09-26T02:38:42.842Z,7.38
2018-09-26T02:41:11.144Z,7.37
2018-09-26T02:43:39.332Z,7.35
2018-09-26T02:46:07.660Z,7.56
2018-09-26T02:48:41.619Z,7.38
2018-09-26T02:51:09.836Z,7.29
2018-09-26T02:53:38.150Z,7.31
2018-09-26T02:56:06.425Z,7.28
2018-09-26T02:58:34.674Z,7.24
2018-09-26T03:01:02.970Z,7.19
2018-09-26T03:03:31.229Z,7.20
2018-09-26T03:05:59.386Z,7.14
2018-09-26T03:08:28.430Z,7.04
2018-09-26T03:10:56.648Z,7.10
2018-09-26T03:13:24.766Z,7.07
2018-09-26T03:15:52.922Z,7.02
2018-09-26T03:18:21.110Z,7.01
2018-09-26T03:20:49.882Z,7.03
2018-09-26T03:23:18.064Z,7.02
2018-09-26T03:25:46.302Z,7.01
2018-09-26T03:28:14.506Z,6.98
2018-09-26T03:30:42.816Z,7.06
2018-09-26T03:33:11.089Z,7.22
2018-09-26T03:35:39.309Z,7.19
2018-09-26T03:38:08.406Z,7.32
2018-09-26T03:40:36.612Z,7.33
2018-09-26T03:43:04.802Z,7.22
2018-09-26T03:45:32.953Z,7.22
2018-09-26T03:48:01.259Z,7.31
2018-09-26T03:50:29.530Z,7.35
2018-09-26T03:52:57.800Z,7.41
2018-09-26T03:55:25.985Z,7.35
2018-09-26T03:57:54.094Z,7.37
2018-09-26T04:00:22.268Z,7.27
2018-09-26T04:02:50.532Z,7.26
2018-09-26T04:05:18.690Z,7.25
2018-09-26T04:07:47.544Z,7.01
2018-09-26T04:12:43.504Z,6.99
2018-09-26T04:15:11.711Z,6.99
2018-09-26T04:17:40.068Z,7.03
2018-09-26T04:20:08.717Z,7.09
2018-09-26T04:22:37.019Z,7.35
2018-09-26T04:25:05.377Z,7.24
2018-09-26T04:27:33.612Z,7.30
2018-09-26T04:30:01.905Z,7.33
2018-09-26T04:32:30.374Z,7.34
2018-09-26T04:34:58.711Z,7.34
2018-09-26T04:37:27.055Z,7.33
2018-09-26T04:39:55.293Z,7.41
2018-09-26T04:42:23.461Z,7.40
2018-09-26T04:44:51.839Z,7.33
2018-09-26T04:47:20.092Z,7.42
2018-09-26T04:49:48.605Z,7.44
2018-09-26T04:52:16.842Z,7.39
2018-09-26T04:54:45.332Z,7.33
2018-09-26T04:57:21.269Z,7.24
2018-09-26T04:59:50.576Z,7.21
2018-09-26T05:02:19.072Z,7.20
2018-09-26T05:04:48.140Z,7.20
2018-09-26T05:07:16.976Z,7.13
2018-09-26T05:09:45.157Z,7.14
2018-09-26T05:12:13.292Z,7.12
2018-09-26T05:14:41.516Z,7.09
2018-09-26T05:17:10.510Z,6.97
2018-09-26T05:19:38.774Z,7.06
2018-09-26T05:22:07.136Z,7.04
2018-09-26T05:24:35.418Z,7.05
2018-09-26T05:27:03.778Z,7.10
2018-09-26T05:29:32.076Z,7.09
2018-09-26T05:32:00.210Z,7.12
2018-09-26T05:34:28.649Z,7.28
2018-09-26T05:36:56.803Z,7.25
2018-09-26T05:39:24.977Z,7.28
2018-09-26T05:41:53.218Z,7.37
2018-09-26T05:44:22.141Z,7.42
2018-09-26T05:46:50.448Z,7.45
2018-09-26T05:49:18.714Z,7.52
2018-09-26T05:51:47.601Z,7.52
2018-09-26T05:54:15.921Z,7.70
2018-09-26T05:56:44.251Z,7.60
2018-09-26T05:59:12.385Z,7.76
2018-09-26T06:01:40.515Z,7.82
2018-09-26T06:04:08.860Z,7.81
2018-09-26T06:06:37.812Z,7.97
2018-09-26T06:09:10.761Z,8.12
2018-09-26T06:11:38.961Z,8.20
2018-09-26T06:14:07.973Z,8.39
2018-09-26T06:16:36.257Z,8.51
2018-09-26T06:19:04.605Z,8.37
2018-09-26T06:21:32.744Z,8.55
2018-09-26T06:24:00.919Z,8.84
2018-09-26T06:26:29.165Z,8.77
2018-09-26T06:28:57.495Z,8.84
2018-09-26T06:31:25.852Z,8.91
2018-09-26T06:33:54.001Z,9.10
2018-09-26T06:36:22.287Z,9.07
2018-09-26T06:38:51.025Z,9.17
2018-09-26T06:41:19.328Z,9.45
2018-09-26T06:43:47.959Z,9.73
2018-09-26T06:46:16.131Z,9.87
2018-09-26T06:48:44.387Z,10.15
2018-09-26T06:51:12.610Z,10.26
2018-09-26T06:53:40.895Z,10.23
2018-09-26T06:56:09.903Z,10.29
2018-09-26T06:58:38.227Z,10.53
2018-09-26T07:01:06.574Z,10.48
2018-09-26T07:03:34.867Z,10.41
2018-09-26T07:06:03.014Z,10.57
2018-09-26T07:08:31.233Z,10.78
2018-09-26T07:10:59.356Z,10.47
2018-09-26T07:13:27.520Z,10.66
2018-09-26T07:15:55.958Z,10.82
2018-09-26T07:18:24.168Z,10.99
2018-09-26T07:20:52.312Z,11.20
2018-09-26T07:23:20.706Z,11.26
2018-09-26T07:25:49.294Z,11.26
2018-09-26T07:28:17.455Z,11.27
2018-09-26T07:30:46.592Z,11.33
2018-09-26T07:33:14.704Z,11.30
2018-09-26T07:35:44.362Z,11.26
2018-09-26T07:38:12.616Z,11.34
2018-09-26T07:40:41.083Z,11.27
2018-09-26T07:43:09.325Z,11.54
2018-09-26T07:45:38.113Z,11.57
2018-09-26T07:48:06.711Z,11.40
2018-09-26T07:50:34.899Z,11.12
2018-09-26T07:53:03.105Z,11.31
2018-09-26T07:55:31.997Z,11.47
2018-09-26T07:58:00.145Z,11.46
2018-09-26T08:00:28.466Z,11.56
2018-09-26T08:02:56.739Z,11.72
2018-09-26T08:05:25.517Z,11.61
2018-09-26T08:07:53.825Z,11.62
2018-09-26T08:10:23.054Z,11.72
2018-09-26T08:12:52.185Z,11.96
2018-09-26T08:15:20.411Z,11.81
2018-09-26T08:17:48.730Z,11.74
2018-09-26T08:20:22.661Z,12.00
2018-09-26T08:22:51.067Z,12.29
2018-09-26T08:25:19.317Z,12.44
2018-09-26T08:27:47.465Z,12.70
2018-09-26T08:30:15.615Z,12.86
2018-09-26T08:32:44.154Z,13.02
2018-09-26T08:35:12.676Z,13.22
2018-09-26T08:37:41.570Z,13.40
2018-09-26T08:40:13.720Z,13.38
2018-09-26T08:45:19.423Z,13.51
2018-09-26T08:47:48.089Z,13.58
2018-09-26T08:50:16.793Z,13.81
2018-09-26T08:52:45.133Z,13.89
2018-09-26T08:55:13.373Z,14.09
2018-09-26T08:57:41.599Z,14.31
2018-09-26T09:00:09.843Z,14.58
2018-09-26T09:02:38.050Z,14.84
2018-09-26T09:05:06.278Z,15.83
2018-09-26T09:07:34.670Z,20.06
2018-09-26T09:10:03.304Z,22.90
2018-09-26T09:12:31.600Z,25.37
2018-09-26T09:15:00.000Z,28.87
2018-09-26T09:17:28.307Z,30.37
2018-09-26T09:19:56.478Z,33.34
2018-09-26T09:22:25.888Z,32.31
2018-09-26T09:24:54.724Z,28.46
2018-09-26T09:27:22.973Z,31.86
2018-09-26T09:29:52.272Z,32.92
2018-09-26T09:32:21.603Z,35.03
2018-09-26T09:34:49.869Z,34.77
2018-09-26T09:37:18.999Z,35.68
2018-09-26T09:39:47.836Z,36.41
2018-09-26T09:42:16.060Z,36.66
2018-09-26T09:44:44.404Z,35.08
2018-09-26T09:47:12.699Z,35.36
2018-09-26T09:49:40.988Z,35.40
2018-09-26T09:52:09.430Z,36.64
2018-09-26T09:54:37.948Z,36.84
2018-09-26T09:57:07.059Z,37.48
2018-09-26T09:59:35.199Z,35.72
2018-09-26T10:02:04.028Z,37.13
2018-09-26T10:04:32.833Z,37.35
2018-09-26T10:07:01.175Z,36.23
2018-09-26T10:09:30.022Z,37.08
2018-09-26T10:11:58.993Z,37.15
2018-09-26T10:14:27.310Z,37.71
2018-09-26T10:16:55.643Z,37.58
2018-09-26T10:19:24.065Z,37.89
2018-09-26T10:21:52.261Z,36.04
2018-09-26T10:24:20.459Z,32.01
2018-09-26T10:26:48.708Z,30.38
2018-09-26T10:29:16.902Z,28.63
2018-09-26T10:31:45.801Z,29.26
2018-09-26T10:34:13.969Z,28.44
2018-09-26T10:36:45.228Z,27.23
2018-09-26T10:39:14.439Z,25.99
2018-09-26T10:41:42.627Z,25.05
2018-09-26T10:44:10.881Z,24.59
2018-09-26T10:46:39.859Z,24.29
2018-09-26T10:49:08.252Z,22.97
2018-09-26T10:51:36.992Z,22.82
2018-09-26T10:54:05.138Z,23.00
2018-09-26T10:56:34.286Z,23.62
2018-09-26T10:59:02.420Z,24.06
2018-09-26T11:01:30.811Z,24.37
2018-09-26T11:03:59.076Z,26.08
2018-09-26T11:06:27.284Z,27.54
2018-09-26T11:08:56.534Z,30.05
2018-09-26T11:11:24.757Z,32.26
2018-09-26T11:13:54.264Z,32.47
2018-09-26T11:16:22.450Z,31.29
2018-09-26T11:18:52.144Z,30.41
2018-09-26T11:21:21.076Z,30.68
2018-09-26T11:23:49.974Z,32.44
2018-09-26T11:26:18.208Z,34.81
2018-09-26T11:28:46.297Z,36.05
2018-09-26T11:31:15.218Z,36.21
2018-09-26T11:33:43.500Z,35.21
2018-09-26T11:36:11.577Z,35.11
2018-09-26T11:38:40.939Z,33.98
2018-09-26T11:41:09.215Z,33.63
2018-09-26T11:43:38.204Z,33.32
2018-09-26T11:46:06.484Z,31.10
2018-09-26T11:48:35.843Z,31.65
2018-09-26T11:51:04.129Z,33.63
2018-09-26T11:53:33.284Z,35.11
2018-09-26T11:56:01.584Z,35.80
2018-09-26T11:58:29.696Z,34.98
2018-09-26T12:00:57.895Z,34.83
2018-09-26T12:03:26.052Z,32.43
2018-09-26T12:05:54.233Z,33.95
2018-09-26T12:08:22.603Z,34.31
2018-09-26T12:10:51.978Z,35.17
2018-09-26T12:13:20.327Z,34.69
2018-09-26T12:15:49.067Z,34.50
2018-09-26T12:18:17.425Z,35.99
2018-09-26T12:20:45.759Z,34.07
2018-09-26T12:23:14.683Z,32.67
2018-09-26T12:25:43.259Z,32.24
2018-09-26T12:28:11.428Z,31.91
2018-09-26T12:30:39.584Z,33.66
2018-09-26T12:33:07.824Z,34.35
2018-09-26T12:35:36.017Z,33.85
2018-09-26T12:38:04.400Z,33.25
2018-09-26T12:40:32.591Z,32.27
2018-09-26T12:43:00.747Z,32.46
2018-09-26T12:45:29.376Z,31.80
2018-09-26T12:47:57.567Z,32.16
2018-09-26T12:50:25.743Z,32.33
2018-09-26T12:52:53.939Z,31.44
2018-09-26T12:55:22.079Z,30.48
2018-09-26T12:57:50.348Z,30.08
2018-09-26T13:00:18.614Z,31.43
2018-09-26T13:02:46.872Z,32.96
2018-09-26T13:05:15.938Z,33.22
2018-09-26T13:07:44.145Z,33.18
2018-09-26T13:10:12.487Z,31.96
2018-09-26T13:12:40.676Z,32.52
2018-09-26T13:15:08.962Z,31.89
2018-09-26T13:17:37.284Z,30.43
2018-09-26T13:20:06.339Z,30.47
2018-09-26T13:22:35.072Z,29.88
2018-09-26T13:25:03.300Z,29.71
2018-09-26T13:27:31.534Z,30.62
2018-09-26T13:30:00.248Z,31.21
2018-09-26T13:32:28.548Z,31.28
2018-09-26T13:34:56.833Z,31.22
2018-09-26T13:37:25.105Z,30.04
2018-09-26T13:39:53.345Z,28.74
2018-09-26T13:42:21.660Z,27.70
2018-09-26T13:44:49.860Z,28.04
2018-09-26T13:47:18.132Z,28.04
2018-09-26T13:49:46.494Z,27.49
2018-09-26T13:52:14.786Z,26.90
2018-09-26T13:54:42.942Z,26.67
2018-09-26T13:57:11.411Z,26.62
2018-09-26T13:59:39.833Z,26.33
2018-09-26T14:02:08.068Z,26.11
2018-09-26T14:04:36.297Z,25.91
2018-09-26T14:07:04.635Z,25.82
2018-09-26T14:09:32.812Z,25.98
2018-09-26T14:12:01.129Z,26.18
2018-09-26T14:14:29.608Z,26.34
2018-09-26T14:16:58.093Z,26.75
2018-09-26T14:19:26.336Z,27.49
2018-09-26T14:21:54.525Z,27.79
2018-09-26T14:24:22.921Z,27.14
2018-09-26T14:26:51.103Z,26.65
2018-09-26T14:29:19.333Z,26.80
2018-09-26T14:31:47.535Z,26.84
2018-09-26T14:34:15.739Z,26.95
2018-09-26T14:36:44.093Z,27.51
2018-09-26T14:39:12.362Z,26.77
2018-09-26T14:41:40.486Z,26.55
2018-09-26T14:44:08.656Z,26.31
2018-09-26T14:46:36.751Z,25.79
2018-09-26T14:49:05.018Z,25.78
2018-09-26T14:51:33.139Z,26.48
2018-09-26T14:54:01.341Z,26.15
2018-09-26T14:56:29.550Z,25.16
2018-09-26T14:58:58.181Z,24.34
2018-09-26T15:01:26.319Z,23.82
2018-09-26T15:03:54.476Z,23.31
2018-09-26T15:06:22.858Z,22.66
2018-09-26T15:08:51.125Z,22.05
2018-09-26T15:11:19.893Z,21.52
2018-09-26T15:13:48.094Z,21.33
2018-09-26T15:16:16.415Z,20.94
2018-09-26T15:18:44.597Z,20.69
2018-09-26T15:21:13.595Z,20.27
2018-09-26T15:23:41.743Z,20.11
2018-09-26T15:26:09.957Z,19.97
2018-09-26T15:28:39.281Z,19.77
2018-09-26T15:31:08.033Z,19.73
2018-09-26T15:33:36.189Z,19.57
2018-09-26T15:36:04.528Z,19.40
2018-09-26T15:38:32.676Z,19.31
2018-09-26T15:41:00.971Z,19.28
2018-09-26T15:43:29.221Z,19.12
2018-09-26T15:45:57.407Z,19.06
2018-09-26T15:48:25.563Z,18.86
2018-09-26T15:50:53.705Z,18.80
2018-09-26T15:53:21.875Z,18.74
2018-09-26T15:55:51.163Z,18.68
2018-09-26T15:58:20.148Z,18.60
2018-09-26T16:00:49.182Z,18.54
2018-09-26T16:03:17.339Z,18.54
2018-09-26T16:05:46.280Z,18.51
2018-09-26T16:08:14.444Z,18.50
2018-09-26T16:10:42.661Z,18.50
2018-09-26T16:13:10.821Z,18.26
2018-09-26T16:15:39.091Z,18.20
2018-09-26T16:18:07.297Z,18.14
2018-09-26T16:20:35.781Z,18.15
2018-09-26T16:23:04.609Z,17.97
2018-09-26T16:25:33.135Z,17.95
2018-09-26T16:28:02.089Z,17.98
2018-09-26T16:30:30.259Z,17.85
2018-09-26T16:32:58.461Z,17.81
2018-09-26T16:35:26.707Z,17.73
2018-09-26T16:37:54.885Z,17.68
2018-09-26T16:40:23.097Z,17.61
2018-09-26T16:42:51.401Z,17.48
2018-09-26T16:45:19.693Z,17.37
2018-09-26T16:47:47.931Z,17.35
2018-09-26T16:50:16.098Z,17.16
2018-09-26T16:52:44.331Z,17.06
2018-09-26T16:55:12.604Z,16.95
2018-09-26T16:57:40.874Z,16.92
2018-09-26T17:00:09.062Z,16.76
2018-09-26T17:02:37.241Z,16.82
2018-09-26T17:05:06.435Z,16.63
2018-09-26T17:07:34.716Z,16.52
2018-09-26T17:10:02.925Z,16.40
2018-09-26T17:12:31.072Z,16.44
2018-09-26T17:14:59.268Z,16.39
2018-09-26T17:17:27.610Z,16.35
2018-09-26T17:19:55.951Z,16.34
2018-09-26T17:22:24.342Z,16.40
2018-09-26T17:24:52.542Z,16.29
2018-09-26T17:27:20.802Z,16.21
2018-09-26T17:29:49.099Z,16.16
2018-09-26T17:32:17.332Z,16.11
2018-09-26T17:34:45.807Z,16.05
2018-09-26T17:37:13.938Z,15.93
2018-09-26T17:39:42.056Z,15.82
2018-09-26T17:42:10.448Z,15.75
2018-09-26T17:44:38.570Z,15.69
2018-09-26T17:47:07.082Z,15.63
2018-09-26T17:49:35.312Z,15.76
2018-09-26T17:52:03.632Z,15.70
2018-09-26T17:54:31.823Z,15.65
2018-09-26T17:57:00.065Z,15.51
2018-09-26T17:59:28.259Z,15.46
2018-09-26T18:01:56.620Z,15.45
2018-09-26T18:04:24.960Z,15.42
2018-09-26T18:06:53.174Z,15.46
2018-09-26T18:09:22.124Z,15.42
2018-09-26T18:11:50.867Z,15.50
2018-09-26T18:14:19.026Z,15.38
2018-09-26T18:16:47.159Z,15.27
2018-09-26T18:19:15.363Z,15.29
2018-09-26T18:21:43.769Z,15.16
2018-09-26T18:24:12.119Z,15.18
2018-09-26T18:26:40.348Z,15.18
2018-09-26T18:29:08.645Z,15.09
2018-09-26T18:31:37.087Z,15.04
2018-09-26T18:34:05.401Z,15.08
2018-09-26T18:36:33.548Z,15.10
2018-09-26T18:39:01.852Z,15.02
2018-09-26T18:41:30.068Z,14.90
2018-09-26T18:43:58.231Z,14.83
2018-09-26T18:46:26.687Z,14.81
2018-09-26T18:48:54.865Z,14.85
2018-09-26T18:51:23.086Z,14.76
2018-09-26T18:53:51.311Z,14.72
2018-09-26T18:56:19.602Z,14.68
2018-09-26T18:58:47.887Z,14.68
2018-09-26T19:01:16.189Z,14.66
2018-09-26T19:03:44.366Z,14.68
2018-09-26T19:06:12.569Z,14.60
2018-09-26T19:08:40.857Z,14.63
2018-09-26T19:11:09.113Z,14.68
2018-09-26T19:13:37.532Z,14.61
2018-09-26T19:16:06.253Z,14.58
2018-09-26T19:18:34.664Z,14.47
2018-09-26T19:21:02.870Z,14.49
2018-09-26T19:23:31.091Z,14.56
2018-09-26T19:25:59.404Z,14.44
2018-09-26T19:28:27.694Z,14.37
2018-09-26T19:30:56.045Z,14.45
2018-09-26T19:33:24.477Z,14.56
2018-09-26T19:35:53.268Z,14.52
2018-09-26T19:38:21.639Z,14.41
2018-09-26T19:40:49.840Z,14.41
2018-09-26T19:43:18.176Z,14.39
2018-09-26T19:45:47.019Z,14.31
2018-09-26T19:48:15.436Z,14.27
2018-09-26T19:50:43.964Z,14.34
2018-09-26T19:53:12.246Z,14.26
2018-09-26T19:55:40.568Z,14.15
2018-09-26T19:58:08.852Z,14.21
2018-09-26T20:00:37.065Z,14.19
2018-09-26T20:03:05.383Z,14.15
2018-09-26T20:05:33.598Z,14.15
2018-09-26T20:08:01.849Z,14.15
2018-09-26T20:10:30.121Z,14.09
2018-09-26T20:12:58.453Z,14.06
2018-09-26T20:15:26.989Z,13.93
2018-09-26T20:17:55.264Z,13.89
2018-09-26T20:20:23.561Z,13.90
2018-09-26T20:22:51.830Z,13.87
2018-09-26T20:25:20.575Z,13.92
2018-09-26T20:27:48.717Z,13.80
2018-09-26T20:30:17.481Z,13.70
2018-09-26T20:32:45.755Z,13.79
2018-09-26T20:35:13.975Z,13.70
2018-09-26T20:37:43.058Z,13.76
2018-09-26T20:40:11.211Z,13.75
2018-09-26T20:42:39.437Z,13.71
2018-09-26T20:45:07.736Z,13.69
2018-09-26T20:47:35.940Z,13.62
2018-09-26T20:50:04.869Z,13.66
2018-09-26T20:52:33.065Z,13.67
2018-09-26T20:55:01.931Z,13.74
2018-09-26T20:57:30.160Z,13.77
2018-09-26T20:59:58.345Z,13.93
2018-09-26T21:02:26.778Z,14.08
2018-09-26T21:04:55.229Z,14.30
2018-09-26T21:07:23.512Z,14.40
2018-09-26T21:09:51.845Z,14.30
2018-09-26T21:12:20.014Z,14.40
2018-09-26T21:14:48.282Z,14.50
2018-09-26T21:17:17.300Z,14.41
2018-09-26T21:19:45.624Z,14.40
2018-09-26T21:22:13.914Z,14.31
2018-09-26T21:24:43.238Z,14.29
2018-09-26T21:27:11.451Z,14.22
2018-09-26T21:29:39.759Z,14.23
2018-09-26T21:32:07.957Z,14.25
2018-09-26T21:34:36.226Z,14.23
2018-09-26T21:37:04.525Z,14.09
2018-09-26T21:39:32.809Z,13.99
2018-09-26T21:42:01.145Z,13.81
2018-09-26T21:44:29.292Z,13.76
2018-09-26T21:46:57.567Z,13.82
2018-09-26T21:49:26.473Z,13.70
2018-09-26T21:51:55.100Z,13.67
2018-09-26T21:54:24.085Z,13.64
2018-09-26T21:56:52.310Z,13.74
2018-09-26T21:59:20.404Z,13.58
2018-09-26T22:01:48.662Z,13.54
2018-09-26T22:04:17.103Z,13.50
2018-09-26T22:06:45.353Z,13.44
2018-09-26T22:09:13.701Z,13.46
2018-09-26T22:11:42.232Z,13.49
2018-09-26T22:14:10.616Z,13.34
2018-09-26T22:16:38.796Z,13.40
2018-09-26T22:19:06.965Z,13.37
2018-09-26T22:21:35.242Z,13.21
2018-09-26T22:24:04.300Z,13.29
2018-09-26T22:26:33.097Z,13.30
2018-09-26T22:29:02.366Z,13.20
2018-09-26T22:31:34.175Z,13.21
2018-09-26T22:34:02.614Z,13.27
2018-09-26T22:36:30.783Z,13.19
2018-09-26T22:38:59.118Z,13.22
2018-09-26T22:41:28.053Z,13.09
2018-09-26T22:43:56.305Z,13.16
2018-09-26T22:46:24.528Z,13.23
2018-09-26T22:48:52.848Z,13.10
2018-09-26T22:51:21.072Z,12.94
2018-09-26T22:53:49.445Z,12.94
2018-09-26T22:56:17.549Z,13.05
2018-09-26T22:58:45.830Z,12.96
2018-09-26T23:01:14.025Z,12.88
2018-09-26T23:03:42.368Z,12.93
2018-09-26T23:06:11.436Z,13.02
2018-09-26T23:08:39.613Z,13.02
2018-09-26T23:11:07.929Z,13.02
2018-09-26T23:13:36.393Z,13.04
2018-09-26T23:16:04.747Z,12.99
2018-09-26T23:18:32.921Z,13.19
2018-09-26T23:21:01.208Z,13.23
2018-09-26T23:23:30.443Z,13.23
2018-09-26T23:25:58.762Z,13.31
2018-09-26T23:28:27.721Z,13.27
2018-09-26T23:30:56.407Z,13.37
2018-09-26T23:33:25.158Z,13.30
2018-09-26T23:35:53.571Z,13.28
2018-09-26T23:38:22.573Z,13.28
2018-09-26T23:40:51.975Z,13.26
2018-09-26T23:43:20.205Z,13.33
2018-09-26T23:45:49.939Z,13.20
2018-09-26T23:48:18.163Z,13.22
2018-09-26T23:50:47.639Z,13.28
2018-09-26T23:53:15.911Z,13.23
2018-09-26T23:55:44.321Z,13.09
2018-09-26T23:58:12.488Z,13.02
